Time;durP1;ratioP1;P1;durP2;ratioP2;P2;SDS_P1;SDS_P2;PMS_P1;PMS_P2;Temp;Humidity;BMP_temperature;BMP_pressure;BME280_temperature;BME280_humidity;BME280_pressure;Samples;Min_cycle;Max_cycle;Signal;HPM_P1;HPM_P2
2023/04/15 00:01:24;;;;;;;1.30;0.80;;;19.40;81.80;;;;;;6284985;22;20098;-76
2023/04/15 00:03:53;;;;;;;0.90;0.57;;;19.50;51.50;;;;;;6285003;22;20012;-75
2023/04/15 00:06:22;;;;;;;1.35;0.57;;;19.60;82.00;;;;;;6285063;22;19995;-76
2023/04/15 00:08:49;;;;;;;0.80;0.55;;;19.50;66.30;;;;;;6275014;22;20000;-76
2023/04/15 00:11:15;;;;;;;1.00;0.40;;;19.40;82.00;;;;;;6285154;22;19996;-75
2023/04/15 00:13:42;;;;;;;0.85;0.55;;;19.50;81.50;;;;;;6273112;22;20300;-75
2023/04/15 00:16:08;;;;;;;1.25;0.80;;;19.40;51.20;;;;;;6285080;22;20438;-75
2023/04/15 00:18:34;;;;;;;0.98;0.70;;;19.50;81.40;;;;;;6284904;22;20058;-75
2023/04/15 00:21:00;;;;;;;1.10;0.55;;;19.50;74.00;;;;;;6285080;22;19996;-75
2023/04/15 00:23:26;;;;;;;1.35;0.63;;;19.70;81.40;;;;;;6284848;22;19999;-76
2023/04/15 00:25:52;;;;;;;0.90;0.80;;;19.50;80.10;;;;;;6284995;22;20000;-75
2023/04/15 00:28:18;;;;;;;1.00;0.50;;;;;;;;;;6285668;22;19992;-76
2023/04/15 00:30:44;;;;;;;0.98;0.50;;;;;;;;;;6286668;22;20007;-76
2023/04/15 00:33:11;;;;;;;0.90;0.65;;;;;;;;;;6286757;22;19992;-76
2023/04/15 00:35:37;;;;;;;2.03;0.70;;;19.50;82.20;;;;;;6286781;22;20003;-76
2023/04/15 00:38:07;;;;;;;0.50;0.38;;;19.50;82.30;;;;;;6286664;22;20438;-75
2023/04/15 00:40:33;;;;;;;1.20;0.60;;;19.40;74.70;;;;;;6286754;22;19999;-75
2023/04/15 00:42:58;;;;;;;1.38;0.55;;;19.50;82.80;;;;;;6276720;22;19996;-76
2023/04/15 00:45:26;;;;;;;1.33;0.77;;;19.40;51.60;;;;;;6286630;22;20010;-75
2023/04/15 00:47:53;;;;;;;1.48;0.88;;;19.70;83.80;;;;;;6276742;22;19996;-75
2023/04/15 00:50:19;;;;;;;0.85;0.55;;;;;;;;;;6276722;22;19992;-75
2023/04/15 00:52:45;;;;;;;0.90;0.40;;;;;;;;;;6276172;22;20653;-75
2023/04/15 00:55:11;;;;;;;1.05;0.70;;;19.50;83.10;;;;;;6274784;22;19996;-77
2023/04/15 00:57:38;;;;;;;0.40;0.40;;;19.60;83.10;;;;;;6286542;22;19999;-77
2023/04/15 01:00:06;;;;;;;0.82;0.60;;;19.50;82.90;;;;;;6286324;22;20335;-77
2023/04/15 01:02:33;;;;;;;2.22;0.77;;;19.50;80.40;;;;;;6286264;22;20300;-77
2023/04/15 01:04:59;;;;;;;1.00;0.50;;;19.50;80.70;;;;;;6286475;22;20048;-77
2023/04/15 01:07:25;;;;;;;1.25;0.70;;;19.40;80.80;;;;;;6286428;22;20075;-76
2023/04/15 01:09:51;;;;;;;0.88;0.70;;;19.40;80.60;;;;;;6286317;22;19995;-76
2023/04/15 01:12:18;;;;;;;1.15;0.50;;;19.40;79.40;;;;;;6286501;22;19995;-77
2023/04/15 01:14:44;;;;;;;1.67;0.70;;;19.30;79.20;;;;;;6276524;22;20041;-77
2023/04/15 01:17:10;;;;;;;1.10;0.55;;;19.20;79.00;;;;;;6276015;22;20027;-77
2023/04/15 01:19:36;;;;;;;1.70;0.80;;;19.60;79.10;;;;;;6276248;22;20029;-77
2023/04/15 01:22:04;;;;;;;1.27;0.60;;;;;;;;;;6276140;22;20074;-77
2023/04/15 01:24:35;;;;;;;1.80;0.80;;;19.40;79.20;;;;;;6276454;22;20008;-77
2023/04/15 01:27:02;;;;;;;1.42;0.70;;;19.60;79.70;;;;;;6276496;22;20017;-80
2023/04/15 01:29:29;;;;;;;1.15;0.30;;;19.20;79.80;;;;;;6276092;22;19999;-78
2023/04/15 01:31:56;;;;;;;1.48;0.60;;;19.40;80.50;;;;;;6276415;22;20019;-76
2023/04/15 01:34:22;;;;;;;0.85;0.40;;;19.00;81.20;;;;;;6276008;22;19995;-75
2023/04/15 01:36:48;;;;;;;0.70;0.55;;;;;;;;;;6275928;22;19992;-76
2023/04/15 01:39:14;;;;;;;1.35;0.52;;;19.60;81.60;;;;;;6275617;22;20019;-75
2023/04/15 01:41:41;;;;;;;1.55;0.75;;;19.30;81.50;;;;;;6276305;22;20104;-76
2023/04/15 01:44:07;;;;;;;1.30;0.50;;;19.50;81.60;;;;;;6275718;22;20006;-76
2023/04/15 01:46:34;;;;;;;0.80;0.65;;;19.30;82.70;;;;;;6275836;22;20439;-75
2023/04/15 01:49:01;;;;;;;2.58;0.77;;;19.50;82.80;;;;;;6275733;22;20449;-77
2023/04/15 01:51:27;;;;;;;2.03;0.52;;;19.30;83.20;;;;;;6275878;22;20037;-76
2023/04/15 01:53:55;;;;;;;1.70;0.65;;;;;;;;;;6275929;22;20326;-75
2023/04/15 01:56:23;;;;;;;0.98;0.60;;;19.20;83.20;;;;;;6276062;22;19996;-75
2023/04/15 01:58:48;;;;;;;1.10;0.60;;;18.90;83.30;;;;;;6285744;22;20004;-76
2023/04/15 02:01:15;;;;;;;1.77;0.80;;;19.50;83.50;;;;;;6285934;22;20455;-76
2023/04/15 02:03:41;;;;;;;0.60;0.50;;;19.40;83.20;;;;;;6285895;22;20431;-76
2023/04/15 02:06:07;;;;;;;1.20;0.50;;;19.20;83.10;;;;;;6285957;22;19995;-76
2023/04/15 02:08:33;;;;;;;1.75;0.85;;;;;;;;;;6286094;22;20019;-75
2023/04/15 02:11:00;;;;;;;0.80;0.52;;;19.40;83.70;;;;;;6284403;22;20098;-76
2023/04/15 02:13:25;;;;;;;0.60;0.50;;;19.30;83.70;;;;;;6284274;22;20008;-76
2023/04/15 02:15:51;;;;;;;1.90;0.60;;;;;;;;;;6258578;22;20031;-75
2023/04/15 02:18:17;;;;;;;1.90;0.70;;;19.20;83.60;;;;;;6284168;22;20010;-76
2023/04/15 02:20:44;;;;;;;0.50;0.40;;;19.40;83.90;;;;;;6285833;22;20115;-75
2023/04/15 02:23:10;;;;;;;0.68;0.50;;;19.30;83.20;;;;;;6275845;22;20057;-76
2023/04/15 02:25:37;;;;;;;1.90;0.68;;;19.50;68.40;;;;;;6275437;22;20006;-76
2023/04/15 02:28:06;;;;;;;1.33;0.70;;;19.10;83.60;;;;;;6275946;22;20037;-77
2023/04/15 02:30:33;;;;;;;2.08;0.50;;;19.20;83.80;;;;;;6285927;22;20019;-76
2023/04/15 02:33:00;;;;;;;0.70;0.60;;;19.00;83.30;;;;;;6285789;22;20006;-76
2023/04/15 02:35:26;;;;;;;1.15;0.40;;;19.20;51.30;;;;;;6273931;22;20015;-78
2023/04/15 02:37:52;;;;;;;1.95;0.70;;;19.40;65.90;;;;;;6285814;22;20081;-76
2023/04/15 02:40:17;;;;;;;0.88;0.57;;;18.90;82.50;;;;;;6285697;22;20004;-78
2023/04/15 02:42:43;;;;;;;0.90;0.50;;;18.90;82.40;;;;;;6284354;22;20442;-77
2023/04/15 02:45:11;;;;;;;0.82;0.60;;;19.40;82.60;;;;;;6285739;22;20007;-75
2023/04/15 02:47:38;;;;;;;1.13;0.50;;;19.10;82.60;;;;;;6285646;22;20071;-75
2023/04/15 02:50:05;;;;;;;1.13;0.70;;;19.40;82.90;;;;;;6275325;22;20374;-75
2023/04/15 02:52:31;;;;;;;1.42;0.80;;;19.30;82.60;;;;;;6285630;22;19993;-75
2023/04/15 02:54:59;;;;;;;1.30;0.70;;;19.30;81.70;;;;;;6285580;22;19996;-75
2023/04/15 02:57:27;;;;;;;0.65;0.40;;;19.00;81.30;;;;;;6285603;22;19995;-75
2023/04/15 02:59:53;;;;;;;1.45;0.73;;;19.30;81.30;;;;;;6273960;22;20386;-76
2023/04/15 03:02:19;;;;;;;0.50;0.50;;;;;;;;;;6285871;22;19992;-76
2023/04/15 03:04:45;;;;;;;1.48;0.40;;;;;;;;;;6285803;22;20004;-76
2023/04/15 03:07:10;;;;;;;0.60;0.40;;;19.30;81.40;;;;;;6285812;22;20002;-76
2023/04/15 03:09:38;;;;;;;1.30;0.75;;;19.30;81.30;;;;;;6285719;22;20000;-77
2023/04/15 03:12:04;;;;;;;0.68;0.43;;;19.20;81.10;;;;;;6285752;22;19992;-77
2023/04/15 03:14:29;;;;;;;0.68;0.60;;;19.00;81.30;;;;;;6275637;22;20057;-77
2023/04/15 03:16:55;;;;;;;2.67;0.80;;;19.20;81.30;;;;;;6285678;22;19992;-76
2023/04/15 03:19:21;;;;;;;0.60;0.43;;;19.10;81.40;;;;;;6285629;22;20082;-76
2023/04/15 03:21:46;;;;;;;2.00;0.70;;;19.10;81.80;;;;;;6285767;22;20000;-75
2023/04/15 03:24:12;;;;;;;1.23;0.50;;;18.90;81.50;;;;;;6283950;22;20322;-76
2023/04/15 03:26:37;;;;;;;1.42;0.55;;;18.70;81.70;;;;;;6285571;22;20019;-76
2023/04/15 03:29:03;;;;;;;0.85;0.60;;;;;;;;;;6274999;22;20002;-75
2023/04/15 03:31:29;;;;;;;0.82;0.47;;;19.20;82.00;;;;;;6285508;22;20062;-75
2023/04/15 03:33:54;;;;;;;0.70;0.40;;;19.20;81.90;;;;;;6285637;22;20489;-75
2023/04/15 03:36:20;;;;;;;1.42;0.50;;;18.90;81.80;;;;;;6275496;22;20001;-75
2023/04/15 03:38:46;;;;;;;1.05;0.55;;;19.00;82.10;;;;;;6285240;22;20008;-75
2023/04/15 03:41:11;;;;;;;2.42;0.63;;;19.10;82.10;;;;;;6285241;22;20063;-75
2023/04/15 03:43:37;;;;;;;1.35;0.50;;;18.80;82.00;;;;;;6285498;22;19995;-76
2023/04/15 03:46:03;;;;;;;0.57;0.45;;;18.90;81.80;;;;;;6285306;22;20204;-75
2023/04/15 03:48:29;;;;;;;0.68;0.68;;;19.10;82.10;;;;;;6273407;22;20000;-76
2023/04/15 03:50:54;;;;;;;1.10;0.50;;;18.90;81.70;;;;;;6283816;22;20000;-76
2023/04/15 03:53:21;;;;;;;0.55;0.30;;;19.30;53.30;;;;;;6275027;22;20079;-75
2023/04/15 03:55:47;;;;;;;1.52;0.73;;;19.10;81.80;;;;;;6274802;22;20003;-75
2023/04/15 03:58:12;;;;;;;0.90;0.40;;;19.10;81.80;;;;;;6275263;22;19995;-76
2023/04/15 04:00:40;;;;;;;0.65;0.45;;;19.00;81.90;;;;;;6275239;22;20007;-75
2023/04/15 04:03:06;;;;;;;1.65;0.60;;;18.90;81.80;;;;;;6275552;22;20194;-75
2023/04/15 04:05:35;;;;;;;0.30;0.30;;;19.00;81.90;;;;;;6277084;22;20000;-75
2023/04/15 04:08:01;;;;;;;0.55;0.43;;;19.00;81.60;;;;;;6277265;22;20366;-75
2023/04/15 04:10:27;;;;;;;2.80;0.85;;;18.90;81.80;;;;;;6276935;22;19991;-77
2023/04/15 04:12:53;;;;;;;1.63;0.55;;;19.10;82.10;;;;;;6277005;22;19999;-76
2023/04/15 04:15:19;;;;;;;1.02;0.50;;;19.10;82.20;;;;;;6276955;22;19992;-76
2023/04/15 04:17:45;;;;;;;0.80;0.60;;;18.80;82.20;;;;;;6277090;22;19995;-77
2023/04/15 04:20:11;;;;;;;0.85;0.40;;;19.00;82.30;;;;;;6276892;22;20010;-77
2023/04/15 04:22:38;;;;;;;1.38;0.60;;;18.80;82.10;;;;;;6277066;22;19996;-77
2023/04/15 04:25:05;;;;;;;0.75;0.40;;;19.00;81.90;;;;;;6287289;22;20000;-77
2023/04/15 04:27:31;;;;;;;0.70;0.40;;;;;;;;;;6287106;22;20045;-77
2023/04/15 04:29:56;;;;;;;1.98;0.60;;;18.80;82.20;;;;;;6286832;22;20000;-77
2023/04/15 04:32:22;;;;;;;0.90;0.55;;;18.90;82.10;;;;;;6287177;22;19999;-78
2023/04/15 04:34:48;;;;;;;1.20;0.75;;;19.00;82.30;;;;;;6275401;22;20149;-76
2023/04/15 04:37:14;;;;;;;2.47;0.40;;;;;;;;;;6286023;22;20537;-78
2023/04/15 04:39:40;;;;;;;0.60;0.40;;;19.10;82.30;;;;;;6277214;22;20042;-77
2023/04/15 04:42:05;;;;;;;0.75;0.50;;;18.70;82.20;;;;;;6277250;22;19996;-77
2023/04/15 04:44:32;;;;;;;1.10;0.50;;;18.80;82.50;;;;;;6275554;22;20323;-78
2023/04/15 04:46:58;;;;;;;0.55;0.50;;;19.00;82.90;;;;;;6276763;22;19999;-77
2023/04/15 04:49:24;;;;;;;1.92;0.70;;;18.90;82.60;;;;;;6276676;22;20347;-77
2023/04/15 04:51:51;;;;;;;0.50;0.40;;;19.00;82.90;;;;;;6276764;22;19995;-77
2023/04/15 04:54:17;;;;;;;1.20;0.30;;;19.10;82.90;;;;;;6275032;22;20007;-76
2023/04/15 04:56:42;;;;;;;2.05;0.80;;;18.90;82.90;;;;;;6286728;22;19996;-76
2023/04/15 04:59:08;;;;;;;1.23;0.50;;;18.90;82.60;;;;;;6285099;22;20003;-76
2023/04/15 05:01:34;;;;;;;0.70;0.40;;;18.80;83.20;;;;;;6286446;22;20002;-76
2023/04/15 05:04:00;;;;;;;0.73;0.40;;;;;;;;;;6286534;22;20094;-75
2023/04/15 05:06:26;;;;;;;0.82;0.73;;;;;;;;;;6286505;22;19992;-75
2023/04/15 05:08:52;;;;;;;0.60;0.40;;;18.80;82.60;;;;;;6276124;22;20082;-75
2023/04/15 05:11:17;;;;;;;0.50;0.40;;;18.60;82.90;;;;;;6286478;22;20030;-73
2023/04/15 05:13:43;;;;;;;0.45;0.45;;;19.00;82.90;;;;;;6283195;22;19998;-75
2023/04/15 05:16:09;;;;;;;1.63;0.52;;;18.90;83.00;;;;;;6276346;22;20065;-76
2023/04/15 05:18:36;;;;;;;0.65;0.50;;;18.80;83.00;;;;;;6275858;22;20431;-76
2023/04/15 05:21:03;;;;;;;1.15;0.50;;;18.90;83.00;;;;;;6276125;22;20073;-77
2023/04/15 05:23:29;;;;;;;0.43;0.35;;;18.90;83.00;;;;;;6276063;22;19992;-79
2023/04/15 05:25:55;;;;;;;0.70;0.60;;;19.00;83.30;;;;;;6276214;22;20075;-79
2023/04/15 05:28:21;;;;;;;0.90;0.40;;;18.70;82.90;;;;;;6276629;22;20061;-75
2023/04/15 05:30:47;;;;;;;1.42;0.40;;;18.60;80.50;;;;;;6276001;22;20316;-75
2023/04/15 05:33:12;;;;;;;1.60;0.70;;;19.00;82.30;;;;;;6284822;22;19996;-75
2023/04/15 05:35:38;;;;;;;0.93;0.47;;;18.90;82.80;;;;;;6276341;22;19999;-74
2023/04/15 05:38:05;;;;;;;0.60;0.60;;;18.90;82.60;;;;;;6276471;22;20039;-75
2023/04/15 05:40:31;;;;;;;2.47;0.30;;;18.90;82.60;;;;;;6249462;22;20343;-76
2023/04/15 05:42:57;;;;;;;0.93;0.40;;;18.90;82.60;;;;;;6284463;22;20019;-75
2023/04/15 05:45:23;;;;;;;1.70;0.55;;;18.40;81.90;;;;;;6274662;22;20007;-76
2023/04/15 05:47:53;;;;;;;1.48;0.65;;;18.70;82.30;;;;;;6274686;22;20007;-76
2023/04/15 05:50:20;;;;;;;1.40;0.40;;;18.70;82.40;;;;;;6250051;22;20050;-76
2023/04/15 05:52:46;;;;;;;2.97;0.60;;;18.90;82.70;;;;;;6249157;22;20441;-76
2023/04/15 05:55:13;;;;;;;2.35;0.52;;;18.70;82.90;;;;;;6274135;22;20078;-76
2023/04/15 05:57:39;;;;;;;0.77;0.40;;;18.90;70.10;;;;;;6274667;22;20008;-76
2023/04/15 06:00:06;;;;;;;1.58;0.70;;;18.40;67.40;;;;;;6248621;22;20018;-75
2023/04/15 06:02:32;;;;;;;0.40;0.40;;;18.60;83.00;;;;;;6274046;22;20077;-76
2023/04/15 06:04:59;;;;;;;2.05;0.82;;;18.90;83.30;;;;;;6249010;22;20426;-76
2023/04/15 06:07:25;;;;;;;2.90;0.75;;;18.80;83.20;;;;;;6249457;22;20019;-76
2023/04/15 06:09:52;;;;;;;1.13;0.40;;;18.70;82.60;;;;;;6275996;22;20007;-75
2023/04/15 06:12:18;;;;;;;0.95;0.60;;;18.80;82.90;;;;;;6249156;22;19999;-76
2023/04/15 06:14:44;;;;;;;1.23;0.40;;;;;;;;;;6223166;22;20501;-76
2023/04/15 06:17:10;;;;;;;1.35;0.73;;;18.70;83.10;;;;;;6284360;22;19996;-75
2023/04/15 06:19:36;;;;;;;0.75;0.50;;;;;;;;;;6248872;22;20011;-75
2023/04/15 06:22:03;;;;;;;0.90;0.57;;;18.70;82.60;;;;;;6274368;22;20057;-76
2023/04/15 06:24:29;;;;;;;1.13;0.38;;;18.70;82.60;;;;;;6275905;22;20012;-78
2023/04/15 06:26:58;;;;;;;1.55;0.60;;;18.70;48.20;;;;;;6248660;22;20046;-75
2023/04/15 06:29:25;;;;;;;0.75;0.35;;;;;;;;;;6248869;22;20015;-78
2023/04/15 06:31:50;;;;;;;1.58;0.70;;;18.40;82.10;;;;;;6284144;22;20423;-78
2023/04/15 06:34:16;;;;;;;0.90;0.68;;;18.80;82.00;;;;;;6258792;22;20006;-79
2023/04/15 06:36:42;;;;;;;0.52;0.52;;;;;;;;;;6258532;22;20500;-79
2023/04/15 06:39:08;;;;;;;1.52;0.60;;;18.80;57.40;;;;;;6285482;22;20007;-78
2023/04/15 06:41:34;;;;;;;0.70;0.60;;;18.70;82.50;;;;;;6284233;22;20050;-78
2023/04/15 06:44:00;;;;;;;1.02;0.60;;;18.30;82.40;;;;;;6223103;22;20014;-76
2023/04/15 06:46:25;;;;;;;0.90;0.50;;;18.90;83.00;;;;;;6284196;22;20035;-76
2023/04/15 06:48:51;;;;;;;1.42;0.60;;;;;;;;;;6258337;22;19996;-76
2023/04/15 06:51:17;;;;;;;1.20;0.50;;;18.50;82.80;;;;;;6284127;22;20002;-76
2023/04/15 06:53:43;;;;;;;0.85;0.63;;;18.70;83.00;;;;;;6258523;22;20027;-77
2023/04/15 06:56:09;;;;;;;1.05;0.50;;;18.90;83.20;;;;;;6274174;22;20087;-77
2023/04/15 06:58:35;;;;;;;1.85;0.60;;;18.90;83.20;;;;;;6248683;22;20073;-77
2023/04/15 07:01:02;;;;;;;1.40;0.60;;;18.90;83.30;;;;;;6285581;22;20519;-76
2023/04/15 07:03:28;;;;;;;0.50;0.45;;;;;;;;;;6283846;22;20027;-76
2023/04/15 07:05:54;;;;;;;0.75;0.47;;;;;;;;;;6284013;22;20054;-74
2023/04/15 07:08:20;;;;;;;1.55;0.50;;;18.80;82.90;;;;;;6285286;22;19999;-75
2023/04/15 07:10:46;;;;;;;0.63;0.43;;;19.10;83.20;;;;;;6285358;22;20026;-75
2023/04/15 07:13:12;;;;;;;1.75;0.47;;;19.10;82.80;;;;;;6285308;22;19996;-76
2023/04/15 07:15:37;;;;;;;1.67;0.82;;;19.10;82.50;;;;;;6273574;22;19996;-77
2023/04/15 07:18:03;;;;;;;3.10;0.60;;;19.20;82.70;;;;;;6285350;22;19996;-76
2023/04/15 07:20:28;;;;;;;1.20;0.60;;;19.10;82.80;;;;;;6285380;22;20003;-78
2023/04/15 07:22:54;;;;;;;0.70;0.68;;;18.70;82.70;;;;;;6275568;22;20007;-76
2023/04/15 07:25:21;;;;;;;1.40;0.70;;;19.10;82.90;;;;;;6274870;22;20482;-75
2023/04/15 07:27:47;;;;;;;1.25;0.60;;;19.20;83.00;;;;;;6275534;22;20042;-77
2023/04/15 07:30:12;;;;;;;0.73;0.40;;;19.00;83.00;;;;;;6285203;22;20362;-75
2023/04/15 07:32:39;;;;;;;3.03;0.52;;;19.00;83.30;;;;;;6285489;22;20023;-75
2023/04/15 07:35:04;;;;;;;0.65;0.40;;;19.30;83.30;;;;;;6275380;22;20003;-75
2023/04/15 07:37:31;;;;;;;0.98;0.43;;;;;;;;;;6285583;22;20427;-75
2023/04/15 07:39:57;;;;;;;0.70;0.70;;;19.00;83.50;;;;;;6277336;22;20014;-76
2023/04/15 07:42:23;;;;;;;0.88;0.50;;;19.30;83.70;;;;;;6277317;22;19995;-79
2023/04/15 07:44:49;;;;;;;2.70;0.65;;;19.20;84.10;;;;;;6277371;22;20054;-75
2023/04/15 07:47:14;;;;;;;1.52;0.60;;;18.80;84.20;;;;;;6287263;22;20000;-76
2023/04/15 07:49:42;;;;;;;1.30;0.77;;;18.80;84.40;;;;;;6287340;22;20031;-77
2023/04/15 07:52:07;;;;;;;2.45;0.55;;;18.80;84.50;;;;;;6287319;22;20030;-77
2023/04/15 07:54:33;;;;;;;1.00;0.47;;;19.00;84.60;;;;;;6287265;22;20570;-78
2023/04/15 07:56:58;;;;;;;1.15;0.68;;;18.70;84.30;;;;;;6287289;22;20415;-77
2023/04/15 07:59:24;;;;;;;0.70;0.50;;;19.10;84.50;;;;;;6287026;22;20011;-73
2023/04/15 08:01:50;;;;;;;2.88;0.65;;;19.20;84.90;;;;;;6287069;22;20030;-73
2023/04/15 08:04:15;;;;;;;1.17;0.52;;;19.00;84.90;;;;;;6274752;22;20033;-73
2023/04/15 08:06:42;;;;;;;0.80;0.50;;;19.40;85.70;;;;;;6275190;22;20000;-73
2023/04/15 08:09:07;;;;;;;1.80;0.50;;;19.20;85.60;;;;;;6285104;22;20049;-74
2023/04/15 08:11:33;;;;;;;2.03;0.90;;;19.00;85.10;;;;;;6285833;22;20050;-75
2023/04/15 08:14:00;;;;;;;0.60;0.60;;;;;;;;;;6274923;22;19999;-73
2023/04/15 08:16:27;;;;;;;2.25;1.13;;;;;;;;;;6275449;22;20007;-75
2023/04/15 08:18:55;;;;;;;1.40;0.82;;;19.40;85.80;;;;;;6275643;22;20008;-76
2023/04/15 08:21:22;;;;;;;2.88;1.20;;;19.10;85.90;;;;;;6275375;22;20016;-78
2023/04/15 08:23:51;;;;;;;2.83;1.50;;;19.20;85.70;;;;;;6275404;22;19995;-75
2023/04/15 08:26:17;;;;;;;1.75;1.42;;;19.10;85.60;;;;;;6275131;22;20073;-77
2023/04/15 08:28:44;;;;;;;2.67;1.58;;;18.90;85.50;;;;;;6277467;22;20088;-76
2023/04/15 08:31:12;;;;;;;1.95;1.20;;;19.20;85.40;;;;;;6275360;22;20061;-76
2023/04/15 08:33:38;;;;;;;4.13;1.40;;;19.20;85.30;;;;;;6274945;22;20063;-74
2023/04/15 08:36:05;;;;;;;1.63;1.10;;;18.90;85.40;;;;;;6275898;22;20438;-75
2023/04/15 08:38:31;;;;;;;2.42;0.80;;;19.40;85.30;;;;;;6278535;22;20446;-75
2023/04/15 08:40:59;;;;;;;2.30;0.75;;;19.50;85.40;;;;;;6275100;22;19999;-78
2023/04/15 08:43:33;;;;;;;0.95;0.52;;;19.20;85.00;;;;;;6274864;22;20007;-75
2023/04/15 08:46:00;;;;;;;2.22;1.02;;;19.50;85.10;;;;;;6275089;22;20000;-76
2023/04/15 08:48:32;;;;;;;1.42;1.02;;;19.30;85.00;;;;;;6274504;22;19992;-76
2023/04/15 08:50:59;;;;;;;1.80;1.52;;;19.50;54.60;;;;;;6275176;22;20300;-79
2023/04/15 08:53:27;;;;;;;2.58;1.27;;;19.50;84.60;;;;;;6274870;22;19991;-80
2023/04/15 08:55:55;;;;;;;3.00;1.45;;;19.60;83.90;;;;;;6275268;22;20000;-74
2023/04/15 08:58:21;;;;;;;1.48;1.20;;;19.50;83.10;;;;;;6274652;22;19992;-76
2023/04/15 09:00:47;;;;;;;3.40;1.90;;;19.40;82.60;;;;;;6274906;22;20067;-76
2023/04/15 09:03:13;;;;;;;2.03;1.40;;;19.40;82.80;;;;;;6226489;22;1134038;-76
2023/04/15 09:05:39;;;;;;;2.28;1.00;;;19.70;82.60;;;;;;6276680;22;20004;-75
2023/04/15 09:08:06;;;;;;;3.28;1.83;;;19.50;82.40;;;;;;6276660;22;19996;-74
2023/04/15 09:10:32;;;;;;;2.05;1.70;;;20.10;52.40;;;;;;6276257;22;19996;-77
2023/04/15 09:13:01;;;;;;;2.33;1.60;;;19.70;82.20;;;;;;6276216;22;20027;-73
2023/04/15 09:15:28;;;;;;;2.17;0.93;;;19.80;64.20;;;;;;6276466;22;20483;-72
2023/04/15 09:17:55;;;;;;;2.45;1.50;;;19.60;82.10;;;;;;6276530;22;20000;-74
2023/04/15 09:20:22;;;;;;;0.90;0.90;;;20.30;52.40;;;;;;6276031;22;20004;-73
2023/04/15 09:22:49;;;;;;;5.50;2.00;;;19.50;81.70;;;;;;6286288;22;19992;-74
2023/04/15 09:25:28;;;;;;;1.67;0.60;;;19.80;82.20;;;;;;6276517;22;20003;-73
2023/04/15 09:27:58;;;;;;;2.25;1.50;;;19.90;82.20;;;;;;6286363;22;19992;-74
2023/04/15 09:30:24;;;;;;;1.77;1.42;;;20.20;82.10;;;;;;6286493;22;20086;-77
2023/04/15 09:32:52;;;;;;;1.80;1.70;;;20.00;68.40;;;;;;6276263;22;19996;-77
2023/04/15 09:35:23;;;;;;;2.45;1.35;;;20.10;51.50;;;;;;6276523;22;20067;-77
2023/04/15 09:37:49;;;;;;;;;;;20.00;52.40;;;;;;6276903;22;19996;-76
2023/04/15 09:40:50;;;;;;;2.28;1.08;;;20.00;81.20;;;;;;6277152;22;19972;-77
2023/04/15 09:43:16;;;;;;;2.67;1.45;;;20.20;81.30;;;;;;6292535;22;20003;-77
2023/04/15 09:45:51;;;;;;;1.95;0.80;;;20.40;81.10;;;;;;6280808;22;20006;-78
2023/04/15 09:48:26;;;;;;;2.25;1.13;;;20.00;56.00;;;;;;6288868;22;20023;-78
2023/04/15 09:50:56;;;;;;;1.65;0.93;;;20.40;81.30;;;;;;6286469;22;20006;-79
2023/04/15 09:53:24;;;;;;;2.63;1.27;;;20.60;81.10;;;;;;6276471;22;20011;-74
2023/04/15 09:55:53;;;;;;;2.60;0.80;;;20.40;50.50;;;;;;6276366;22;20071;-77
2023/04/15 09:58:26;;;;;;;1.52;1.00;;;20.40;80.30;;;;;;6276221;22;19996;-78
2023/04/15 10:00:55;;;;;;;1.80;1.10;;;20.60;80.60;;;;;;6275385;22;20007;-84
2023/04/15 10:03:32;;;;;;;2.97;0.90;;;20.70;80.20;;;;;;6275521;22;20003;-77
2023/04/15 10:06:00;;;;;;;3.10;1.50;;;20.70;49.50;;;;;;6286056;22;20443;-76
2023/04/15 10:08:31;;;;;;;4.25;1.20;;;20.70;47.30;;;;;;6286252;22;19996;-79
2023/04/15 10:10:57;;;;;;;5.15;1.20;;;20.60;80.60;;;;;;6274277;22;20299;-81
2023/04/15 10:13:25;;;;;;;1.08;0.90;;;20.80;50.70;;;;;;6286134;22;20358;-80
2023/04/15 10:15:57;;;;;;;2.17;1.00;;;21.10;80.80;;;;;;6276203;22;20058;-78
2023/04/15 10:18:25;;;;;;;2.47;0.88;;;20.60;80.60;;;;;;6276123;22;19995;-81
2023/04/15 10:20:52;;;;;;;1.67;0.80;;;;;;;;;;6276333;22;20427;-81
2023/04/15 10:23:20;;;;;;;2.25;1.25;;;21.20;66.80;;;;;;6274833;22;20074;-76
2023/04/15 10:25:47;;;;;;;2.95;1.20;;;21.50;52.80;;;;;;6259373;22;20505;-79
2023/04/15 10:28:15;;;;;;;1.75;0.70;;;20.90;80.20;;;;;;6223876;22;20110;-80
2023/04/15 10:30:42;;;;;;;1.83;0.75;;;21.20;49.50;;;;;;6284584;22;20003;-75
2023/04/15 10:33:10;;;;;;;3.45;1.38;;;20.80;79.10;;;;;;6259127;22;20006;-77
2023/04/15 10:35:36;;;;;;;1.08;0.80;;;21.00;79.60;;;;;;6259238;22;20393;-81
2023/04/15 10:38:02;;;;;;;2.15;0.90;;;21.60;79.30;;;;;;6258915;22;20000;-76
2023/04/15 10:40:32;;;;;;;3.55;0.90;;;21.60;77.70;;;;;;6274442;22;20603;-79
2023/04/15 10:43:01;;;;;;;1.10;0.70;;;21.10;77.80;;;;;;6259089;22;20026;-77
2023/04/15 10:45:32;;;;;;;2.67;0.70;;;21.70;77.90;;;;;;6284466;22;20012;-76
2023/04/15 10:48:01;;;;;;;1.38;0.88;;;21.20;78.50;;;;;;6259473;22;20032;-75
2023/04/15 10:50:30;;;;;;;2.65;1.20;;;21.40;78.30;;;;;;6284195;22;20011;-76
2023/04/15 10:52:56;;;;;;;1.65;0.95;;;21.50;48.00;;;;;;6258765;22;20078;-76
2023/04/15 10:55:24;;;;;;;1.75;0.80;;;21.30;66.50;;;;;;6258719;22;20341;-75
2023/04/15 10:57:57;;;;;;;2.55;0.98;;;21.50;45.20;;;;;;6284133;22;20003;-75
2023/04/15 11:00:29;;;;;;;3.03;0.93;;;21.90;78.70;;;;;;6259184;22;20454;-75
2023/04/15 11:02:56;;;;;;;3.70;1.35;;;21.90;78.00;;;;;;6258719;22;20354;-75
2023/04/15 11:05:38;;;;;;;3.65;1.13;;;22.30;78.10;;;;;;6285761;22;20000;-75
2023/04/15 11:08:04;;;;;;;2.15;1.30;;;22.10;78.00;;;;;;6284441;22;20350;-75
2023/04/15 11:10:32;;;;;;;2.40;1.10;;;22.40;77.10;;;;;;6258582;22;20000;-76
2023/04/15 11:13:00;;;;;;;1.92;0.70;;;22.00;75.40;;;;;;6285575;22;20066;-76
2023/04/15 11:15:40;;;;;;;1.10;0.52;;;22.00;74.80;;;;;;6284324;22;20399;-77
2023/04/15 11:18:10;;;;;;;;;;;22.10;46.30;;;;;;6274779;22;20018;-77
2023/04/15 11:20:38;;;;;;;2.50;0.55;;;22.30;74.40;;;;;;6276149;22;19928;-77
2023/04/15 11:23:05;;;;;;;1.73;0.60;;;22.20;74.60;;;;;;6258771;22;20000;-76
2023/04/15 11:25:33;;;;;;;0.85;0.60;;;22.70;74.60;;;;;;6258714;22;20083;-77
2023/04/15 11:28:00;;;;;;;1.30;0.68;;;22.10;73.50;;;;;;6248472;22;20335;-77
2023/04/15 11:30:28;;;;;;;0.80;0.60;;;22.30;73.50;;;;;;6285740;22;20354;-77
2023/04/15 11:32:57;;;;;;;0.40;0.40;;;22.60;73.70;;;;;;6275309;22;19999;-77
2023/04/15 11:35:24;;;;;;;1.13;0.70;;;22.30;72.50;;;;;;6275678;22;20453;-77
2023/04/15 11:37:50;;;;;;;1.17;0.93;;;22.60;72.30;;;;;;6275627;22;19996;-77
2023/04/15 11:40:21;;;;;;;2.53;0.65;;;22.50;72.50;;;;;;6285430;22;20011;-76
2023/04/15 11:43:12;;;;;;;1.52;0.60;;;22.40;72.80;;;;;;6275741;22;20296;-75
2023/04/15 11:45:53;;;;;;;1.90;0.90;;;22.60;73.10;;;;;;6275593;22;19999;-74
2023/04/15 11:48:21;;;;;;;1.45;0.90;;;22.30;72.80;;;;;;6275513;22;20118;-76
2023/04/15 11:50:53;;;;;;;2.47;0.80;;;22.50;73.70;;;;;;6275576;22;19996;-75
2023/04/15 11:53:19;;;;;;;0.90;0.80;;;22.10;73.60;;;;;;6285539;22;20071;-77
2023/04/15 11:55:50;;;;;;;2.25;0.93;;;21.80;73.70;;;;;;6285630;22;20031;-75
2023/04/15 11:58:15;;;;;;;1.35;0.80;;;22.20;73.70;;;;;;6285678;22;19995;-77
2023/04/15 12:00:46;;;;;;;1.98;1.00;;;22.10;73.40;;;;;;6285352;22;20014;-76
2023/04/15 12:03:13;;;;;;;1.70;0.77;;;22.20;73.30;;;;;;6285079;22;20029;-73
2023/04/15 12:06:20;;;;;;;1.90;0.80;;;22.70;73.40;;;;;;6285459;22;20000;-73
2023/04/15 12:08:48;;;;;;;2.65;0.93;;;22.70;42.40;;;;;;6273585;22;20454;-75
2023/04/15 12:11:18;;;;;;;2.30;0.40;;;23.10;72.80;;;;;;6285591;22;20075;-75
2023/04/15 12:13:49;;;;;;;1.10;0.55;;;22.60;72.40;;;;;;6258755;22;19996;-78
2023/04/15 12:16:18;;;;;;;0.90;0.70;;;23.00;72.20;;;;;;6223278;22;20012;-77
2023/04/15 12:18:55;;;;;;;3.55;0.85;;;23.20;71.70;;;;;;6248238;22;20019;-77
2023/04/15 12:21:22;;;;;;;0.57;0.57;;;23.10;71.80;;;;;;6258652;22;20153;-78
2023/04/15 12:23:52;;;;;;;2.67;0.60;;;22.90;71.60;;;;;;6286301;22;19996;-77
2023/04/15 12:26:27;;;;;;;1.27;0.50;;;23.50;71.80;;;;;;6276895;22;19996;-76
2023/04/15 12:28:55;;;;;;;1.40;0.85;;;23.00;71.60;;;;;;6277734;22;19992;-77
2023/04/15 12:31:22;;;;;;;1.30;0.60;;;23.60;71.70;;;;;;6277552;22;20439;-77
2023/04/15 12:33:48;;;;;;;0.82;0.77;;;23.50;71.40;;;;;;6277612;22;19992;-76
2023/04/15 12:36:15;;;;;;;0.50;0.50;;;23.80;71.70;;;;;;6278113;22;20027;-79
2023/04/15 12:38:41;;;;;;;0.47;0.40;;;23.60;72.90;;;;;;6277839;22;19996;-75
2023/04/15 12:41:07;;;;;;;0.50;0.30;;;23.50;43.10;;;;;;6277711;22;20063;-75
2023/04/15 12:43:33;;;;;;;0.95;0.30;;;23.40;72.90;;;;;;6276700;22;19996;-75
2023/04/15 12:45:59;;;;;;;0.95;0.30;;;23.70;73.20;;;;;;6277016;22;20095;-76
2023/04/15 12:48:25;;;;;;;0.50;0.30;;;;;;;;;;6276648;22;19996;-82
2023/04/15 12:50:51;;;;;;;0.30;0.20;;;23.10;73.50;;;;;;6277464;22;20003;-80
2023/04/15 12:53:18;;;;;;;0.90;0.32;;;;;;;;;;6278016;22;20011;-81
2023/04/15 12:55:44;;;;;;;1.13;0.30;;;23.30;42.30;;;;;;6277284;22;20023;-75
2023/04/15 12:58:10;;;;;;;2.17;0.82;;;23.40;72.30;;;;;;6277248;22;19996;-78